createdAt,value
2019-06-26T00:00:45.523Z,318.29
2019-06-26T00:01:45.557Z,317.92
2019-06-26T00:02:45.505Z,318.45
2019-06-26T00:03:45.485Z,319.06
2019-06-26T00:04:45.504Z,317.57
2019-06-26T00:05:45.459Z,317.96
2019-06-26T00:06:45.476Z,319.08
2019-06-26T00:07:45.455Z,319.08
2019-06-26T00:08:45.425Z,319.70
2019-06-26T00:09:45.434Z,317.68
2019-06-26T00:10:45.395Z,318.82
2019-06-26T00:11:45.396Z,318.08
2019-06-26T00:12:45.406Z,317.69
2019-06-26T00:13:45.374Z,318.74
2019-06-26T00:14:45.366Z,317.96
2019-06-26T00:15:45.352Z,319.31
2019-06-26T00:16:45.328Z,318.45
2019-06-26T00:17:46.313Z,319.16
2019-06-26T00:18:45.311Z,318.66
2019-06-26T00:19:45.374Z,316.99
2019-06-26T00:20:45.293Z,317.80
2019-06-26T00:21:45.285Z,317.79
2019-06-26T00:22:45.288Z,316.47
2019-06-26T00:23:45.249Z,319.07
2019-06-26T00:24:45.257Z,319.56
2019-06-26T00:25:45.243Z,318.33
2019-06-26T00:26:45.230Z,318.00
2019-06-26T00:27:45.254Z,318.05
2019-06-26T00:28:45.199Z,321.39
2019-06-26T00:29:45.186Z,318.94
2019-06-26T00:30:45.183Z,317.87
2019-06-26T00:31:45.171Z,316.79
2019-06-26T00:32:45.164Z,317.95
2019-06-26T00:33:45.163Z,318.01
2019-06-26T00:34:45.157Z,320.13
2019-06-26T00:35:45.130Z,317.75
2019-06-26T00:36:45.112Z,317.93
2019-06-26T00:37:45.099Z,318.06
2019-06-26T00:38:45.103Z,320.83
2019-06-26T00:39:45.082Z,319.45
2019-06-26T00:40:45.070Z,318.57
2019-06-26T00:41:45.057Z,320.45
2019-06-26T00:42:45.178Z,318.92
2019-06-26T00:43:45.060Z,319.54
2019-06-26T00:44:45.093Z,319.05
2019-06-26T00:45:45.013Z,319.14
2019-06-26T00:46:45.016Z,318.89
2019-06-26T00:47:44.993Z,317.92
2019-06-26T00:48:44.981Z,319.44
2019-06-26T00:49:44.980Z,317.76
2019-06-26T00:50:44.967Z,318.37
2019-06-26T00:51:44.940Z,318.79
2019-06-26T00:52:44.935Z,319.83
2019-06-26T00:53:44.936Z,320.97
2019-06-26T00:54:44.934Z,321.01
2019-06-26T00:55:44.920Z,320.08
2019-06-26T00:56:44.893Z,318.13
2019-06-26T00:57:44.888Z,319.82
2019-06-26T00:58:44.874Z,319.77
2019-06-26T00:59:44.895Z,318.41
2019-06-26T01:00:44.847Z,318.46
2019-06-26T01:01:44.844Z,319.33
2019-06-26T01:02:44.856Z,319.76
2019-06-26T01:03:44.807Z,319.68
2019-06-26T01:04:44.802Z,318.61
2019-06-26T01:05:44.841Z,320.74
2019-06-26T01:06:44.793Z,317.89
2019-06-26T01:07:44.782Z,318.03
2019-06-26T01:08:44.747Z,318.95
2019-06-26T01:09:44.758Z,318.55
2019-06-26T01:10:44.738Z,319.48
2019-06-26T01:11:44.731Z,318.48
2019-06-26T01:12:44.713Z,318.45
2019-06-26T01:13:57.305Z,319.34
2019-06-26T01:14:45.690Z,318.91
2019-06-26T01:15:44.702Z,318.71
2019-06-26T01:16:44.667Z,318.36
2019-06-26T01:17:44.699Z,319.68
2019-06-26T01:18:44.668Z,318.33
2019-06-26T01:19:44.642Z,318.86
2019-06-26T01:20:44.626Z,319.33
2019-06-26T01:21:44.614Z,319.16
2019-06-26T01:22:44.608Z,318.59
2019-06-26T01:23:44.586Z,319.67
2019-06-26T01:24:44.589Z,319.98
2019-06-26T01:25:44.580Z,317.92
2019-06-26T01:26:44.597Z,320.07
2019-06-26T01:27:44.553Z,319.55
2019-06-26T01:28:44.556Z,317.77
2019-06-26T01:29:44.557Z,317.23
2019-06-26T01:30:44.530Z,318.30
2019-06-26T01:31:44.539Z,319.06
2019-06-26T01:32:44.507Z,319.43
2019-06-26T01:33:44.509Z,317.91
2019-06-26T01:34:44.486Z,318.76
2019-06-26T01:35:44.483Z,320.26
2019-06-26T01:36:44.474Z,319.59
2019-06-26T01:37:44.461Z,318.59
2019-06-26T01:38:44.447Z,319.83
2019-06-26T01:39:44.434Z,318.91
2019-06-26T01:40:44.482Z,318.26
2019-06-26T01:41:44.404Z,318.41
2019-06-26T01:42:44.427Z,318.45
2019-06-26T01:43:44.387Z,318.40
2019-06-26T01:44:44.381Z,318.46
2019-06-26T01:45:44.354Z,318.40
2019-06-26T01:46:44.358Z,317.76
2019-06-26T01:47:44.348Z,320.08
2019-06-26T01:48:44.369Z,320.45
2019-06-26T01:49:44.317Z,318.49
2019-06-26T01:50:44.337Z,315.47
2019-06-26T01:51:44.297Z,318.75
2019-06-26T01:52:44.278Z,319.58
2019-06-26T01:53:44.274Z,319.87
2019-06-26T01:54:44.272Z,319.19
2019-06-26T01:55:44.310Z,316.92
2019-06-26T01:56:44.246Z,318.44
2019-06-26T01:57:44.228Z,318.47
2019-06-26T01:58:44.234Z,319.28
2019-06-26T01:59:44.208Z,317.28
2019-06-26T02:00:44.204Z,319.51
2019-06-26T02:01:44.194Z,317.89
2019-06-26T02:02:44.177Z,316.78
2019-06-26T02:03:44.192Z,317.85
2019-06-26T02:04:44.159Z,318.36
2019-06-26T02:05:44.170Z,323.21
2019-06-26T02:06:44.146Z,316.99
2019-06-26T02:07:44.119Z,317.84
2019-06-26T02:08:44.115Z,319.12
2019-06-26T02:09:44.122Z,318.09
2019-06-26T02:10:44.105Z,318.38
2019-06-26T02:11:44.089Z,319.62
2019-06-26T02:12:44.060Z,318.05
2019-06-26T02:13:44.065Z,320.13
2019-06-26T02:14:44.052Z,317.67
2019-06-26T02:15:44.054Z,317.23
2019-06-26T02:16:44.022Z,318.51
2019-06-26T02:17:44.008Z,317.45
2019-06-26T02:18:44.082Z,320.99
2019-06-26T02:19:44.009Z,319.48
2019-06-26T02:20:44.015Z,318.63
2019-06-26T02:21:43.973Z,320.02
2019-06-26T02:22:43.967Z,321.17
2019-06-26T02:23:43.952Z,318.46
2019-06-26T02:24:43.954Z,318.64
2019-06-26T02:25:43.922Z,317.40
2019-06-26T02:26:43.932Z,318.07
2019-06-26T02:27:43.902Z,316.81
2019-06-26T02:28:43.916Z,320.16
2019-06-26T02:29:43.893Z,319.75
2019-06-26T02:30:43.879Z,318.65
2019-06-26T02:31:43.910Z,319.94
2019-06-26T02:32:43.858Z,317.77
2019-06-26T02:33:43.844Z,316.88
2019-06-26T02:34:43.844Z,319.47
2019-06-26T02:35:43.826Z,319.52
2019-06-26T02:36:43.814Z,319.06
2019-06-26T02:37:43.823Z,317.44
2019-06-26T02:38:43.799Z,319.07
2019-06-26T02:39:43.785Z,317.46
2019-06-26T02:40:43.774Z,317.19
2019-06-26T02:41:43.763Z,318.19
2019-06-26T02:42:43.751Z,318.37
2019-06-26T02:43:43.769Z,316.66
2019-06-26T02:44:53.260Z,319.46
2019-06-26T02:45:44.709Z,320.34
2019-06-26T02:46:43.705Z,319.63
2019-06-26T02:47:43.697Z,322.12
2019-06-26T02:48:43.705Z,320.59
2019-06-26T02:49:43.677Z,317.70
2019-06-26T02:50:43.655Z,320.20
2019-06-26T02:51:43.659Z,318.34
2019-06-26T02:52:43.645Z,319.51
2019-06-26T02:53:43.631Z,320.64
2019-06-26T02:54:43.648Z,318.38
2019-06-26T02:55:43.612Z,316.31
2019-06-26T02:56:43.586Z,320.74
2019-06-26T02:57:43.576Z,319.00
2019-06-26T02:58:43.581Z,318.94
2019-06-26T02:59:43.567Z,317.97
2019-06-26T03:00:43.571Z,318.85
2019-06-26T03:01:43.556Z,321.59
2019-06-26T03:02:43.537Z,320.46
2019-06-26T03:03:43.510Z,320.56
2019-06-26T03:04:43.518Z,320.53
2019-06-26T03:05:43.507Z,320.25
2019-06-26T03:06:43.514Z,317.84
2019-06-26T03:07:43.475Z,319.12
2019-06-26T03:08:43.467Z,317.64
2019-06-26T03:09:43.481Z,320.03
2019-06-26T03:10:43.435Z,319.09
2019-06-26T03:11:43.428Z,319.44
2019-06-26T03:12:43.453Z,320.78
2019-06-26T03:13:43.421Z,318.86
2019-06-26T03:14:43.402Z,321.68
2019-06-26T03:15:43.391Z,318.59
2019-06-26T03:16:43.374Z,316.42
2019-06-26T03:17:54.849Z,322.61
2019-06-26T03:18:44.372Z,317.81
2019-06-26T03:19:43.350Z,318.73
2019-06-26T03:20:43.336Z,320.05
2019-06-26T03:21:43.318Z,319.52
2019-06-26T03:22:43.329Z,318.67
2019-06-26T03:23:43.334Z,318.30
2019-06-26T03:24:43.295Z,320.01
2019-06-26T03:25:43.282Z,319.41
2019-06-26T03:26:43.279Z,318.04
2019-06-26T03:27:43.258Z,320.58
2019-06-26T03:28:43.252Z,317.23
2019-06-26T03:29:43.261Z,319.56
2019-06-26T03:30:43.216Z,320.32
2019-06-26T03:31:43.216Z,318.96
2019-06-26T03:32:43.202Z,319.15
2019-06-26T03:33:43.199Z,318.95
2019-06-26T03:34:43.200Z,319.10
2019-06-26T03:35:43.197Z,319.79
2019-06-26T03:36:43.165Z,319.76
2019-06-26T03:37:43.152Z,318.88
2019-06-26T03:38:43.143Z,318.13
2019-06-26T03:39:43.143Z,319.88
2019-06-26T03:40:43.131Z,318.46
2019-06-26T03:41:43.109Z,319.29
2019-06-26T03:42:43.115Z,321.70
2019-06-26T03:43:43.092Z,318.11
2019-06-26T03:44:43.084Z,321.61
2019-06-26T03:45:43.083Z,320.01
2019-06-26T03:46:43.083Z,321.33
2019-06-26T03:47:43.045Z,320.88
2019-06-26T03:48:43.024Z,320.13
2019-06-26T03:49:43.026Z,320.77
2019-06-26T03:50:43.002Z,319.01
2019-06-26T03:51:43.002Z,321.48
2019-06-26T03:52:43.009Z,322.53
2019-06-26T03:53:42.979Z,320.51
2019-06-26T03:54:42.966Z,319.00
2019-06-26T03:55:42.953Z,320.83
2019-06-26T03:56:42.946Z,322.60
2019-06-26T03:57:42.946Z,319.59
2019-06-26T03:58:42.965Z,319.48
2019-06-26T03:59:42.911Z,320.76
2019-06-26T04:00:43.025Z,319.95
2019-06-26T04:01:42.894Z,321.76
2019-06-26T04:02:42.874Z,320.63
2019-06-26T04:03:42.875Z,319.36
2019-06-26T04:04:42.897Z,320.04
2019-06-26T04:05:42.852Z,320.23
2019-06-26T04:06:42.840Z,319.70
2019-06-26T04:07:42.826Z,319.95
2019-06-26T04:08:42.824Z,320.32
2019-06-26T04:09:42.807Z,318.66
2019-06-26T04:10:43.540Z,320.37
2019-06-26T04:11:42.790Z,322.35
2019-06-26T04:12:42.777Z,320.74
2019-06-26T04:13:42.775Z,320.24
2019-06-26T04:14:42.749Z,319.26
2019-06-26T04:15:43.116Z,320.60
2019-06-26T04:16:42.727Z,317.71
2019-06-26T04:17:42.722Z,318.61
2019-06-26T04:18:42.708Z,317.82
2019-06-26T04:19:42.694Z,318.83
2019-06-26T04:20:42.673Z,317.66
2019-06-26T04:21:42.708Z,320.39
2019-06-26T04:22:42.678Z,319.26
2019-06-26T04:23:42.661Z,320.59
2019-06-26T04:24:42.652Z,318.99
2019-06-26T04:25:42.686Z,320.38
2019-06-26T04:26:42.617Z,318.01
2019-06-26T04:27:42.662Z,319.88
2019-06-26T04:28:42.890Z,318.95
2019-06-26T04:29:42.596Z,317.22
2019-06-26T04:30:42.589Z,318.25
2019-06-26T04:31:42.565Z,319.25
2019-06-26T04:32:42.575Z,319.13
2019-06-26T04:33:42.540Z,320.94
2019-06-26T04:34:42.527Z,318.57
2019-06-26T04:35:42.516Z,317.53
2019-06-26T04:36:42.505Z,320.06
2019-06-26T04:37:42.490Z,317.54
2019-06-26T04:38:43.064Z,321.60
2019-06-26T04:39:42.472Z,319.23
2019-06-26T04:40:42.461Z,318.36
2019-06-26T04:41:42.440Z,319.51
2019-06-26T04:42:42.444Z,318.45
2019-06-26T04:43:42.440Z,318.82
2019-06-26T04:44:42.434Z,319.51
2019-06-26T04:45:57.100Z,320.74
2019-06-26T04:46:43.396Z,318.97
2019-06-26T04:47:42.374Z,317.32
2019-06-26T04:48:42.402Z,318.73
2019-06-26T04:49:42.389Z,319.34
2019-06-26T04:50:42.349Z,318.06
2019-06-26T04:51:42.351Z,317.77
2019-06-26T04:52:42.357Z,317.06
2019-06-26T04:53:42.320Z,317.62
2019-06-26T04:54:42.306Z,324.12
2019-06-26T04:55:42.329Z,317.60
2019-06-26T04:56:42.295Z,319.24
2019-06-26T04:57:42.283Z,317.69
2019-06-26T04:58:42.316Z,320.10
2019-06-26T04:59:42.257Z,318.24
2019-06-26T05:00:42.253Z,317.60
2019-06-26T05:01:42.328Z,319.23
2019-06-26T05:02:42.227Z,321.36
2019-06-26T05:03:42.212Z,319.70
2019-06-26T05:04:42.217Z,316.88
2019-06-26T05:05:44.427Z,319.60
2019-06-26T05:06:42.165Z,316.64
2019-06-26T05:07:42.177Z,318.35
2019-06-26T05:08:42.151Z,315.18
2019-06-26T05:09:42.148Z,317.40
2019-06-26T05:10:42.124Z,323.14
2019-06-26T05:11:42.119Z,319.07
2019-06-26T05:12:42.135Z,319.21
2019-06-26T05:13:42.098Z,316.55
2019-06-26T05:14:42.087Z,317.42
2019-06-26T05:15:42.093Z,317.69
2019-06-26T05:16:42.137Z,317.85
2019-06-26T05:17:42.060Z,320.37
2019-06-26T05:18:42.135Z,318.13
2019-06-26T05:19:42.039Z,317.16
2019-06-26T05:20:42.033Z,318.58
2019-06-26T05:21:42.020Z,317.25
2019-06-26T05:22:42.000Z,315.95
2019-06-26T05:23:41.994Z,318.01
2019-06-26T05:24:42.035Z,319.85
2019-06-26T05:25:41.960Z,316.66
2019-06-26T05:26:41.942Z,320.86
2019-06-26T05:27:41.935Z,315.74
2019-06-26T05:28:41.934Z,319.14
2019-06-26T05:29:41.944Z,317.37
2019-06-26T05:30:41.953Z,318.22
2019-06-26T05:31:41.966Z,318.92
2019-06-26T05:32:41.896Z,319.75
2019-06-26T05:33:41.873Z,317.00
2019-06-26T05:34:41.870Z,316.84
2019-06-26T05:35:41.884Z,316.88
2019-06-26T05:36:41.846Z,315.33
2019-06-26T05:37:41.833Z,320.60
2019-06-26T05:38:41.888Z,317.20
2019-06-26T05:39:41.818Z,317.30
2019-06-26T05:40:41.813Z,320.22
2019-06-26T05:41:41.820Z,315.53
2019-06-26T05:42:41.785Z,315.27
2019-06-26T05:43:41.776Z,317.04
2019-06-26T05:44:41.760Z,316.18
2019-06-26T05:45:41.747Z,316.27
2019-06-26T05:46:41.757Z,317.15
2019-06-26T05:47:41.714Z,315.55
2019-06-26T05:48:41.719Z,317.59
2019-06-26T05:49:41.704Z,318.66
2019-06-26T05:50:41.709Z,317.52
2019-06-26T05:51:41.688Z,320.42
2019-06-26T05:52:43.000Z,315.28
2019-06-26T05:53:41.661Z,317.83
2019-06-26T05:54:41.660Z,319.22
2019-06-26T05:55:41.642Z,318.86
2019-06-26T05:56:45.097Z,316.65
2019-06-26T05:57:42.227Z,315.94
2019-06-26T05:58:41.631Z,313.50
2019-06-26T05:59:41.600Z,313.85
2019-06-26T06:00:41.587Z,319.59
2019-06-26T06:01:41.581Z,315.09
2019-06-26T06:02:41.571Z,316.65
2019-06-26T06:03:41.565Z,317.38
2019-06-26T06:04:41.565Z,315.25
2019-06-26T06:05:41.536Z,312.59
2019-06-26T06:06:42.419Z,314.32
2019-06-26T06:07:41.517Z,315.84
2019-06-26T06:08:41.528Z,314.56
2019-06-26T06:09:41.499Z,314.75
2019-06-26T06:10:41.488Z,316.05
2019-06-26T06:11:41.505Z,314.23
2019-06-26T06:12:41.473Z,318.43
2019-06-26T06:13:41.465Z,317.42
2019-06-26T06:14:41.473Z,309.55
2019-06-26T06:15:41.451Z,314.88
2019-06-26T06:16:47.377Z,309.25
2019-06-26T06:17:42.412Z,314.61
2019-06-26T06:18:41.444Z,315.09
2019-06-26T06:19:41.402Z,313.07
2019-06-26T06:20:41.419Z,310.62
2019-06-26T06:21:41.423Z,320.35
2019-06-26T06:22:41.410Z,314.55
2019-06-26T06:23:41.354Z,321.23
2019-06-26T06:24:41.356Z,315.28
2019-06-26T06:25:41.343Z,314.12
2019-06-26T06:26:41.358Z,313.83
2019-06-26T06:27:41.316Z,305.60
2019-06-26T06:28:41.328Z,309.17
2019-06-26T06:29:41.310Z,314.77
2019-06-26T06:30:41.309Z,312.53
2019-06-26T06:31:41.324Z,310.02
2019-06-26T06:32:41.287Z,310.79
2019-06-26T06:33:41.267Z,313.88
2019-06-26T06:34:41.249Z,308.55
2019-06-26T06:35:41.245Z,311.60
2019-06-26T06:36:41.221Z,301.86
2019-06-26T06:37:41.283Z,300.22
2019-06-26T06:38:41.220Z,306.47
2019-06-26T06:39:41.203Z,303.97
2019-06-26T06:40:41.211Z,305.34
2019-06-26T06:41:43.343Z,307.31
2019-06-26T06:42:41.174Z,299.36
2019-06-26T06:43:41.195Z,307.98
2019-06-26T06:44:41.161Z,302.14
2019-06-26T06:45:41.147Z,298.38
2019-06-26T06:46:41.198Z,302.22
2019-06-26T06:47:41.127Z,306.57
2019-06-26T06:48:41.130Z,298.48
2019-06-26T06:49:41.103Z,306.56
2019-06-26T06:50:41.107Z,305.94
2019-06-26T06:51:41.080Z,304.51
2019-06-26T06:52:41.099Z,307.65
2019-06-26T06:53:41.147Z,301.87
2019-06-26T06:54:41.094Z,297.85
2019-06-26T06:55:41.048Z,287.64
2019-06-26T06:56:41.041Z,300.94
2019-06-26T06:57:41.030Z,301.22
2019-06-26T06:58:41.017Z,296.98
2019-06-26T06:59:41.015Z,298.86
2019-06-26T07:00:41.034Z,299.10
2019-06-26T07:01:40.994Z,302.20
2019-06-26T07:02:40.982Z,298.12
2019-06-26T07:03:40.986Z,295.29
2019-06-26T07:04:40.964Z,298.71
2019-06-26T07:05:40.973Z,295.67
2019-06-26T07:06:40.949Z,295.05
2019-06-26T07:07:40.933Z,291.77
2019-06-26T07:08:40.930Z,300.84
2019-06-26T07:09:40.921Z,291.87
2019-06-26T07:10:40.936Z,295.53
2019-06-26T07:11:40.905Z,301.93
2019-06-26T07:12:40.944Z,300.45
2019-06-26T07:13:40.884Z,292.78
2019-06-26T07:14:40.882Z,295.13
2019-06-26T07:15:40.870Z,299.42
2019-06-26T07:16:40.891Z,298.75
2019-06-26T07:17:40.861Z,293.28
2019-06-26T07:18:40.859Z,296.38
2019-06-26T07:19:40.830Z,294.33
2019-06-26T07:20:44.340Z,296.66
2019-06-26T07:21:40.823Z,294.07
2019-06-26T07:22:40.838Z,293.68
2019-06-26T07:23:40.811Z,288.52
2019-06-26T07:24:40.785Z,289.96
2019-06-26T07:25:40.778Z,302.48
2019-06-26T07:26:40.800Z,294.72
2019-06-26T07:27:40.774Z,299.83
2019-06-26T07:28:40.780Z,291.98
2019-06-26T07:29:40.739Z,295.42
2019-06-26T07:30:40.743Z,292.72
2019-06-26T07:31:40.738Z,285.19
2019-06-26T07:32:40.728Z,292.23
2019-06-26T07:33:40.725Z,296.56
2019-06-26T07:34:40.706Z,295.88
2019-06-26T07:35:40.684Z,303.85
2019-06-26T07:36:40.707Z,290.07
2019-06-26T07:37:40.679Z,302.86
2019-06-26T07:38:40.669Z,286.78
2019-06-26T07:39:40.686Z,297.04
2019-06-26T07:40:40.643Z,301.91
2019-06-26T07:41:40.649Z,291.88
2019-06-26T07:42:40.662Z,277.62
2019-06-26T07:43:40.642Z,298.27
2019-06-26T07:44:40.618Z,286.41
2019-06-26T07:45:40.622Z,299.27
2019-06-26T07:46:40.602Z,285.12
2019-06-26T07:47:43.456Z,289.19
2019-06-26T07:48:40.591Z,287.30
2019-06-26T07:49:40.579Z,296.85
2019-06-26T07:50:40.598Z,299.87
2019-06-26T07:51:40.686Z,295.42
2019-06-26T07:52:40.571Z,291.20
2019-06-26T07:53:40.545Z,304.02
2019-06-26T07:54:40.538Z,290.70
2019-06-26T07:55:40.720Z,296.83
2019-06-26T07:56:40.571Z,288.47
2019-06-26T07:57:40.522Z,293.09
2019-06-26T07:58:40.516Z,291.50
2019-06-26T07:59:40.513Z,291.11
2019-06-26T08:00:40.497Z,283.51
2019-06-26T08:01:40.480Z,295.54
2019-06-26T08:02:40.481Z,286.81
2019-06-26T08:03:40.468Z,291.71
2019-06-26T08:04:40.467Z,289.77
2019-06-26T08:05:42.851Z,304.41
2019-06-26T08:06:40.594Z,292.11
2019-06-26T08:07:40.442Z,284.31
2019-06-26T08:08:40.423Z,285.11
2019-06-26T08:09:40.437Z,280.02
2019-06-26T08:10:40.417Z,287.38
2019-06-26T08:11:40.406Z,288.69
2019-06-26T08:12:40.433Z,293.19
2019-06-26T08:13:40.398Z,282.84
2019-06-26T08:14:40.374Z,297.53
2019-06-26T08:15:40.381Z,288.08
2019-06-26T08:16:40.376Z,281.62
2019-06-26T08:17:40.362Z,296.48
2019-06-26T08:18:40.390Z,277.62
2019-06-26T08:19:40.356Z,297.11
2019-06-26T08:20:51.857Z,290.76
2019-06-26T08:21:41.338Z,293.75
2019-06-26T08:22:40.315Z,285.98
2019-06-26T08:23:40.300Z,295.80
2019-06-26T08:24:40.325Z,297.64
2019-06-26T08:25:40.291Z,287.04
2019-06-26T08:26:40.282Z,293.54
2019-06-26T08:27:40.270Z,288.77
2019-06-26T08:28:40.270Z,295.98
2019-06-26T08:29:40.259Z,286.35
2019-06-26T08:30:40.271Z,284.66
2019-06-26T08:31:40.274Z,295.15
2019-06-26T08:32:40.270Z,288.14
2019-06-26T08:33:40.236Z,287.62
2019-06-26T08:34:40.228Z,284.44
2019-06-26T08:35:40.204Z,293.38
2019-06-26T08:36:40.221Z,288.83
2019-06-26T08:37:40.209Z,289.02
2019-06-26T08:38:40.212Z,291.87
2019-06-26T08:39:40.191Z,280.34
2019-06-26T08:40:40.179Z,276.80
2019-06-26T08:41:40.188Z,277.52
2019-06-26T08:42:40.194Z,288.09
2019-06-26T08:43:40.158Z,282.54
2019-06-26T08:44:40.142Z,280.71
2019-06-26T08:45:40.153Z,284.27
2019-06-26T08:46:40.255Z,286.30
2019-06-26T08:47:40.187Z,284.66
2019-06-26T08:48:40.870Z,275.36
2019-06-26T08:49:40.157Z,284.61
2019-06-26T08:50:40.205Z,292.98
2019-06-26T08:51:40.143Z,287.51
2019-06-26T08:52:40.091Z,288.09
2019-06-26T08:53:40.168Z,280.88
2019-06-26T08:54:40.089Z,286.04
2019-06-26T08:55:40.166Z,288.83
2019-06-26T08:56:40.167Z,289.02
2019-06-26T08:57:40.147Z,292.84
2019-06-26T08:58:40.263Z,276.20
2019-06-26T08:59:40.111Z,285.79
2019-06-26T09:00:40.151Z,282.10
2019-06-26T09:01:40.093Z,287.51
2019-06-26T09:02:40.090Z,272.91
2019-06-26T09:03:42.134Z,287.20
2019-06-26T09:04:40.062Z,288.37
2019-06-26T09:05:48.051Z,283.60
2019-06-26T09:06:41.425Z,292.46
2019-06-26T09:07:40.111Z,300.10
2019-06-26T09:08:40.117Z,286.25
2019-06-26T09:09:40.067Z,288.73
2019-06-26T09:10:40.065Z,278.82
2019-06-26T09:11:40.072Z,282.13
2019-06-26T09:12:40.335Z,284.05
2019-06-26T09:13:39.991Z,281.62
2019-06-26T09:14:39.933Z,283.67
2019-06-26T09:15:39.975Z,285.28
2019-06-26T09:16:39.916Z,285.00
2019-06-26T09:17:39.897Z,294.89
2019-06-26T09:18:39.896Z,289.02
2019-06-26T09:19:39.870Z,295.16
2019-06-26T09:20:39.880Z,284.81
2019-06-26T09:21:39.887Z,287.65
2019-06-26T09:22:39.841Z,308.67
2019-06-26T09:23:39.867Z,281.89
2019-06-26T09:24:39.828Z,299.88
2019-06-26T09:25:39.825Z,298.93
2019-06-26T09:26:39.810Z,295.21
2019-06-26T09:27:39.836Z,296.66
2019-06-26T09:28:39.810Z,297.49
2019-06-26T09:29:39.786Z,280.43
2019-06-26T09:30:39.777Z,284.30
2019-06-26T09:31:39.779Z,284.47
2019-06-26T09:32:39.797Z,289.58
2019-06-26T09:33:39.760Z,295.50
2019-06-26T09:34:39.752Z,285.65
2019-06-26T09:35:39.766Z,285.07
2019-06-26T09:36:39.732Z,283.77
2019-06-26T09:37:39.724Z,291.70
2019-06-26T09:38:39.847Z,284.27
2019-06-26T09:39:39.712Z,300.92
2019-06-26T09:40:39.712Z,285.07
2019-06-26T09:41:39.692Z,294.73
2019-06-26T09:42:39.683Z,291.66
2019-06-26T09:43:39.697Z,285.13
2019-06-26T09:44:39.736Z,284.24
2019-06-26T09:45:39.731Z,294.45
2019-06-26T09:46:39.662Z,290.95
2019-06-26T09:47:39.637Z,290.25
2019-06-26T09:48:52.217Z,291.44
2019-06-26T09:49:40.634Z,293.98
2019-06-26T09:50:39.604Z,278.98
2019-06-26T09:51:39.591Z,296.21
2019-06-26T09:52:39.589Z,286.68
2019-06-26T09:53:47.221Z,297.08
2019-06-26T09:54:40.583Z,286.38
2019-06-26T09:55:39.580Z,309.68
2019-06-26T09:56:39.573Z,289.36
2019-06-26T09:57:39.534Z,293.80
2019-06-26T09:58:39.545Z,291.62
2019-06-26T09:59:39.527Z,290.02
2019-06-26T10:00:39.508Z,289.55
2019-06-26T10:01:39.525Z,289.39
2019-06-26T10:02:39.725Z,299.13
2019-06-26T10:03:39.476Z,290.89
2019-06-26T10:04:39.474Z,288.54
2019-06-26T10:05:39.478Z,301.35
2019-06-26T10:06:39.478Z,292.00
2019-06-26T10:07:39.454Z,300.63
2019-06-26T10:08:39.433Z,294.85
2019-06-26T10:09:39.423Z,288.56
2019-06-26T10:10:39.449Z,299.45
2019-06-26T10:11:39.406Z,288.42
2019-06-26T10:12:39.400Z,295.38
2019-06-26T10:13:39.392Z,287.54
2019-06-26T10:14:47.292Z,294.87
2019-06-26T10:15:40.436Z,295.37
2019-06-26T10:16:39.373Z,302.72
2019-06-26T10:17:39.360Z,311.34
2019-06-26T10:18:39.356Z,292.61
2019-06-26T10:19:39.334Z,303.70
2019-06-26T10:20:39.339Z,307.32
2019-06-26T10:21:39.342Z,301.99
2019-06-26T10:22:39.299Z,303.63
2019-06-26T10:23:39.296Z,294.28
2019-06-26T10:24:39.323Z,305.69
2019-06-26T10:25:39.279Z,295.88
2019-06-26T10:26:39.293Z,291.80
2019-06-26T10:27:39.261Z,297.07
2019-06-26T10:28:39.264Z,302.85
2019-06-26T10:29:39.285Z,311.03
2019-06-26T10:30:39.241Z,304.05
2019-06-26T10:31:39.255Z,303.57
2019-06-26T10:32:39.233Z,307.70
2019-06-26T10:33:39.197Z,309.35
2019-06-26T10:34:39.248Z,299.44
2019-06-26T10:35:39.187Z,307.73
2019-06-26T10:36:39.212Z,302.17
2019-06-26T10:37:39.181Z,295.71
2019-06-26T10:38:39.179Z,304.82
2019-06-26T10:39:39.141Z,298.57
2019-06-26T10:40:39.151Z,305.78
2019-06-26T10:41:39.135Z,307.17
2019-06-26T10:42:39.107Z,304.94
2019-06-26T10:43:39.109Z,306.14
2019-06-26T10:44:39.141Z,303.27
2019-06-26T10:45:39.093Z,298.95
2019-06-26T10:46:39.078Z,296.26
2019-06-26T10:47:40.009Z,301.89
2019-06-26T10:48:39.067Z,303.19
2019-06-26T10:49:39.055Z,302.45
2019-06-26T10:50:49.835Z,297.44
2019-06-26T10:51:40.035Z,307.67
2019-06-26T10:52:39.022Z,305.48
2019-06-26T10:53:39.013Z,306.23
2019-06-26T10:54:38.993Z,309.86
2019-06-26T10:55:38.985Z,300.17
2019-06-26T10:56:38.985Z,303.71
2019-06-26T10:57:38.982Z,307.72
2019-06-26T10:58:38.986Z,316.97
2019-06-26T10:59:38.954Z,303.52
2019-06-26T11:00:38.941Z,307.04
2019-06-26T11:01:38.946Z,303.13
2019-06-26T11:02:38.936Z,314.73
2019-06-26T11:03:38.916Z,308.27
2019-06-26T11:04:38.915Z,317.04
2019-06-26T11:05:38.899Z,306.69
2019-06-26T11:06:38.925Z,299.02
2019-06-26T11:07:38.889Z,305.78
2019-06-26T11:08:38.875Z,306.07
2019-06-26T11:09:38.858Z,305.03
2019-06-26T11:10:38.852Z,302.98
2019-06-26T11:11:38.834Z,305.48
2019-06-26T11:12:38.833Z,306.09
2019-06-26T11:13:38.806Z,305.31
2019-06-26T11:14:38.823Z,307.42
2019-06-26T11:15:38.794Z,303.18
2019-06-26T11:16:38.793Z,309.98
2019-06-26T11:17:38.830Z,303.47
2019-06-26T11:18:38.771Z,304.03
2019-06-26T11:19:43.886Z,314.67
2019-06-26T11:20:39.752Z,305.58
2019-06-26T11:21:38.737Z,301.87
2019-06-26T11:22:38.738Z,302.36
2019-06-26T11:23:38.748Z,300.44
2019-06-26T11:24:38.722Z,301.19
2019-06-26T11:25:38.688Z,304.42
2019-06-26T11:26:38.680Z,305.47
2019-06-26T11:27:38.674Z,309.65
2019-06-26T11:28:38.712Z,304.06
2019-06-26T11:29:38.673Z,307.50
2019-06-26T11:30:38.665Z,304.64
2019-06-26T11:31:38.638Z,304.35
2019-06-26T11:32:38.637Z,301.11
2019-06-26T11:33:38.622Z,304.34
2019-06-26T11:34:38.637Z,297.41
2019-06-26T11:35:38.636Z,306.58
2019-06-26T11:36:38.584Z,303.95
2019-06-26T11:37:38.579Z,302.71
2019-06-26T11:38:38.643Z,300.29
2019-06-26T11:39:38.562Z,306.61
2019-06-26T11:40:38.561Z,307.80
2019-06-26T11:41:38.541Z,304.53
2019-06-26T11:42:38.535Z,306.91
2019-06-26T11:43:38.521Z,308.26
2019-06-26T11:44:38.536Z,307.78
2019-06-26T11:45:38.489Z,313.60
2019-06-26T11:46:38.509Z,306.25
2019-06-26T11:47:38.482Z,308.45
2019-06-26T11:48:38.467Z,303.73
2019-06-26T11:49:38.459Z,308.75
2019-06-26T11:50:38.450Z,305.07
2019-06-26T11:51:38.431Z,307.50
2019-06-26T11:52:38.462Z,312.25
2019-06-26T11:53:38.425Z,300.48
2019-06-26T11:54:38.404Z,313.54
2019-06-26T11:55:38.400Z,306.94
2019-06-26T11:56:38.385Z,301.73
2019-06-26T11:57:38.366Z,311.99
2019-06-26T11:58:38.370Z,307.65
2019-06-26T11:59:38.358Z,304.65
2019-06-26T12:00:41.462Z,301.95
2019-06-26T12:01:38.340Z,308.13
2019-06-26T12:02:38.328Z,306.14
2019-06-26T12:03:38.328Z,313.08
2019-06-26T12:04:38.295Z,305.88
2019-06-26T12:05:38.292Z,310.11
2019-06-26T12:06:38.285Z,309.81
2019-06-26T12:07:38.285Z,302.25
2019-06-26T12:08:38.262Z,308.42
2019-06-26T12:09:38.303Z,310.56
2019-06-26T12:10:38.256Z,310.24
2019-06-26T12:11:38.244Z,304.20
2019-06-26T12:12:38.239Z,304.62
2019-06-26T12:13:38.220Z,305.37
2019-06-26T12:14:38.213Z,302.55
2019-06-26T12:15:38.208Z,300.24
2019-06-26T12:16:38.196Z,302.25
2019-06-26T12:17:38.234Z,314.60
2019-06-26T12:18:38.166Z,300.56
2019-06-26T12:19:38.155Z,308.68
2019-06-26T12:20:38.195Z,303.70
2019-06-26T12:21:38.145Z,309.19
2019-06-26T12:22:38.133Z,307.52
2019-06-26T12:23:38.113Z,307.30
2019-06-26T12:24:38.112Z,306.97
2019-06-26T12:25:38.105Z,306.43
2019-06-26T12:26:38.109Z,311.36
2019-06-26T12:27:38.085Z,310.67
2019-06-26T12:28:38.067Z,308.66